Time;durP1;ratioP1;P1;durP2;ratioP2;P2;SDS_P1;SDS_P2;PMS_P1;PMS_P2;Temp;Humidity;BMP_temperature;BMP_pressure;BME280_temperature;BME280_humidity;BME280_pressure;Samples;Min_cycle;Max_cycle;Signal;HPM_P1;HPM_P2
2023/05/27 00:00:01;;;;;;;1.45;0.70;;;7.10;99.90;;;;;;4991321;28;20415;-70
2023/05/27 00:02:27;;;;;;;0.65;0.40;;;7.10;99.90;;;;;;4989855;28;20038;-70
2023/05/27 00:04:53;;;;;;;0.68;0.50;;;7.10;99.90;;;;;;4988725;28;20124;-70
2023/05/27 00:07:18;;;;;;;0.95;0.40;;;7.10;99.90;;;;;;4964098;28;20440;-70
2023/05/27 00:09:44;;;;;;;0.52;0.32;;;7.10;99.90;;;;;;4994343;28;20056;-70
2023/05/27 00:12:10;;;;;;;0.80;0.40;;;7.00;99.90;;;;;;4986792;28;20050;-70
2023/05/27 00:14:35;;;;;;;1.35;0.47;;;7.00;99.90;;;;;;4990351;28;20042;-70
2023/05/27 00:17:01;;;;;;;1.02;0.52;;;7.10;99.90;;;;;;4995228;28;20049;-70
2023/05/27 00:19:29;;;;;;;2.85;0.80;;;7.10;99.90;;;;;;4993423;28;20117;-70
2023/05/27 00:21:55;;;;;;;0.90;0.50;;;7.10;99.90;;;;;;4981620;28;20080;-70
2023/05/27 00:24:21;;;;;;;1.70;0.70;;;7.10;99.90;;;;;;4994224;28;20081;-71
2023/05/27 00:26:47;;;;;;;;;;;7.00;99.90;;;;;;4988207;28;20054;-70
2023/05/27 00:29:13;;;;;;;0.60;0.35;;;7.10;99.90;;;;;;4994187;28;19925;-70
2023/05/27 00:31:39;;;;;;;0.88;0.30;;;7.00;99.90;;;;;;4975174;28;20042;-70
2023/05/27 00:34:05;;;;;;;0.93;0.50;;;7.00;99.90;;;;;;4984777;28;20072;-70
2023/05/27 00:36:33;;;;;;;0.77;0.40;;;7.00;99.90;;;;;;4994626;28;20180;-70
2023/05/27 00:39:00;;;;;;;0.50;0.30;;;6.90;99.90;;;;;;4993563;28;20054;-70
2023/05/27 00:41:26;;;;;;;1.42;0.57;;;6.90;99.90;;;;;;4992443;28;20076;-70
2023/05/27 00:43:52;;;;;;;0.82;0.43;;;6.90;99.90;;;;;;4990671;28;20092;-70
2023/05/27 00:46:18;;;;;;;0.68;0.43;;;6.90;99.90;;;;;;4981733;28;20391;-70
2023/05/27 00:48:45;;;;;;;1.48;0.60;;;6.90;99.90;;;;;;4978722;28;20065;-70
2023/05/27 00:51:11;;;;;;;0.65;0.43;;;6.90;99.90;;;;;;4981886;28;20053;-70
2023/05/27 00:53:41;;;;;;;0.75;0.50;;;6.90;99.90;;;;;;4962284;28;20042;-70
2023/05/27 00:56:08;;;;;;;0.63;0.50;;;6.90;99.90;;;;;;4984897;28;20409;-70
2023/05/27 00:58:34;;;;;;;1.27;0.50;;;6.90;99.90;;;;;;4975915;28;20046;-70
2023/05/27 01:01:01;;;;;;;1.10;0.52;;;6.90;99.90;;;;;;4980593;28;20496;-70
2023/05/27 01:03:28;;;;;;;0.82;0.50;;;6.80;99.90;;;;;;4994002;28;20164;-70
2023/05/27 01:06:00;;;;;;;1.15;0.60;;;6.80;99.90;;;;;;4987562;28;20161;-70
2023/05/27 01:08:52;;;;;;;2.88;0.80;;;6.70;99.90;;;;;;4975466;28;20042;-70
2023/05/27 01:11:23;;;;;;;2.25;1.10;;;6.70;99.90;;;;;;4978981;28;20112;-70
2023/05/27 01:13:58;;;;;;;2.50;1.13;;;6.70;99.90;;;;;;4977425;28;20112;-70
2023/05/27 01:16:26;;;;;;;1.65;0.80;;;6.70;99.90;;;;;;4989471;28;20042;-70
2023/05/27 01:18:55;;;;;;;2.55;1.00;;;6.60;99.90;;;;;;4992505;28;20045;-70
2023/05/27 01:21:24;;;;;;;1.13;0.65;;;6.60;99.90;;;;;;4993856;28;20047;-70
2023/05/27 01:23:51;;;;;;;1.25;0.60;;;6.50;99.90;;;;;;4986282;28;20050;-69
2023/05/27 01:26:16;;;;;;;1.23;0.80;;;6.50;99.90;;;;;;4978729;28;20363;-70
2023/05/27 01:28:42;;;;;;;1.10;0.60;;;6.40;99.90;;;;;;4982474;28;20045;-69
2023/05/27 01:31:28;;;;;;;0.80;0.52;;;6.40;99.90;;;;;;4979984;28;20494;-70
2023/05/27 01:34:06;;;;;;;0.90;0.70;;;6.40;99.90;;;;;;4994327;28;20121;-70
2023/05/27 01:36:39;;;;;;;1.30;0.70;;;6.50;99.90;;;;;;4986647;28;20093;-70
2023/05/27 01:39:09;;;;;;;0.88;0.50;;;6.50;99.90;;;;;;4989601;28;20508;-70
2023/05/27 01:41:36;;;;;;;1.38;0.60;;;6.60;99.90;;;;;;4986883;28;20393;-71
2023/05/27 01:44:03;;;;;;;;;;;6.70;99.90;;;;;;4993511;28;20116;-71
2023/05/27 01:46:28;;;;;;;1.63;0.77;;;6.80;99.90;;;;;;4993285;28;19917;-71
2023/05/27 01:48:54;;;;;;;0.95;0.52;;;6.90;99.90;;;;;;4976788;28;20058;-71
2023/05/27 01:51:20;;;;;;;1.20;0.50;;;6.90;99.90;;;;;;4998750;28;20066;-71
2023/05/27 01:53:45;;;;;;;0.60;0.50;;;6.90;99.90;;;;;;4976621;28;20543;-70
2023/05/27 01:56:11;;;;;;;1.13;0.50;;;7.00;99.90;;;;;;5010040;28;20432;-71
2023/05/27 01:58:37;;;;;;;0.75;0.50;;;7.00;99.90;;;;;;4985848;28;20053;-71
2023/05/27 02:01:02;;;;;;;1.48;0.40;;;7.00;99.90;;;;;;4992688;28;20042;-71
2023/05/27 02:03:28;;;;;;;2.50;0.68;;;7.10;99.90;;;;;;4991820;28;20129;-71
2023/05/27 02:05:54;;;;;;;4.07;0.98;;;7.00;99.90;;;;;;4991979;28;20372;-71
2023/05/27 02:08:19;;;;;;;3.53;1.10;;;7.10;99.90;;;;;;4985632;28;20061;-71
2023/05/27 02:10:45;;;;;;;1.88;0.80;;;7.20;99.90;;;;;;4991456;28;20506;-71
2023/05/27 02:13:11;;;;;;;2.47;0.93;;;7.20;99.90;;;;;;4988828;28;20052;-70
2023/05/27 02:15:36;;;;;;;1.73;0.77;;;7.30;99.90;;;;;;4980375;28;20342;-71
2023/05/27 02:18:04;;;;;;;2.75;0.80;;;7.30;99.90;;;;;;4993212;28;20069;-71
2023/05/27 02:20:30;;;;;;;2.75;0.90;;;7.30;99.90;;;;;;4961202;28;20437;-71
2023/05/27 02:22:56;;;;;;;4.15;1.40;;;7.40;99.90;;;;;;5004249;28;20125;-71
2023/05/27 02:25:21;;;;;;;3.85;1.23;;;7.50;99.90;;;;;;5009140;28;20505;-71
2023/05/27 02:27:48;;;;;;;4.15;1.30;;;7.40;99.90;;;;;;4975924;28;20049;-71
2023/05/27 02:30:14;;;;;;;2.85;0.93;;;7.50;99.90;;;;;;5009362;28;20088;-71
2023/05/27 02:32:40;;;;;;;2.17;0.90;;;7.40;99.90;;;;;;5004114;28;20167;-71
2023/05/27 02:35:07;;;;;;;1.88;0.65;;;7.50;99.90;;;;;;4998576;28;20050;-71
2023/05/27 02:37:33;;;;;;;;;;;7.50;99.90;;;;;;4980156;28;20511;-71
2023/05/27 02:39:58;;;;;;;1.38;0.52;;;7.50;99.90;;;;;;4992569;28;19924;-71
2023/05/27 02:42:24;;;;;;;1.90;0.88;;;7.50;99.90;;;;;;4970255;28;20053;-71
2023/05/27 02:44:50;;;;;;;1.70;0.63;;;7.60;99.90;;;;;;4982598;28;20084;-71
2023/05/27 02:47:15;;;;;;;5.53;0.90;;;7.60;99.90;;;;;;5001004;28;20037;-71
2023/05/27 02:49:41;;;;;;;2.13;0.70;;;7.70;99.90;;;;;;4981963;28;20034;-71
2023/05/27 02:52:07;;;;;;;1.77;0.80;;;7.80;99.90;;;;;;4957860;28;20053;-71
2023/05/27 02:54:32;;;;;;;2.20;0.75;;;7.80;99.90;;;;;;4992310;28;20049;-71
2023/05/27 02:56:58;;;;;;;1.40;0.70;;;7.80;99.90;;;;;;4980699;28;20058;-71
2023/05/27 02:59:24;;;;;;;1.73;0.80;;;7.90;99.90;;;;;;4973694;28;20046;-70
2023/05/27 03:01:49;;;;;;;2.35;0.80;;;7.90;99.90;;;;;;4983114;28;20035;-71
2023/05/27 03:04:16;;;;;;;4.43;1.00;;;7.90;99.90;;;;;;4985832;28;20192;-70
2023/05/27 03:06:42;;;;;;;2.40;1.00;;;7.90;99.90;;;;;;4992282;28;20065;-70
2023/05/27 03:09:08;;;;;;;2.20;0.98;;;8.00;99.90;;;;;;4998460;28;20038;-71
2023/05/27 03:11:34;;;;;;;3.50;1.25;;;8.00;1.00;;;;;;4996820;28;20104;-71
2023/05/27 03:14:00;;;;;;;3.60;1.35;;;8.00;95.10;;;;;;4992637;28;20077;-71
2023/05/27 03:16:25;;;;;;;2.75;1.30;;;8.10;54.60;;;;;;4976987;28;20042;-71
2023/05/27 03:18:51;;;;;;;3.28;1.10;;;8.10;1.00;;;;;;4998368;28;20039;-71
2023/05/27 03:21:17;;;;;;;3.95;1.20;;;8.20;30.00;;;;;;4977156;28;20077;-71
2023/05/27 03:23:42;;;;;;;3.75;1.30;;;8.20;78.30;;;;;;4987501;28;20054;-71
2023/05/27 03:26:08;;;;;;;3.58;1.45;;;8.20;44.60;;;;;;4976924;28;20471;-71
2023/05/27 03:28:34;;;;;;;2.25;1.15;;;8.20;1.00;;;;;;4980050;28;20050;-72
2023/05/27 03:31:00;;;;;;;2.75;1.02;;;8.30;6.10;;;;;;5000692;28;20119;-69
2023/05/27 03:33:25;;;;;;;2.20;0.75;;;8.30;1.00;;;;;;4996049;28;20112;-70
2023/05/27 03:35:51;;;;;;;1.95;0.90;;;8.40;33.30;;;;;;4995332;28;20074;-70
2023/05/27 03:38:17;;;;;;;1.88;0.73;;;8.50;89.00;;;;;;4982585;28;20050;-70
2023/05/27 03:40:43;;;;;;;2.22;0.88;;;8.50;90.80;;;;;;4990605;28;20057;-70
2023/05/27 03:43:08;;;;;;;1.23;0.60;;;8.50;91.10;;;;;;5012675;28;20038;-70
2023/05/27 03:45:34;;;;;;;2.58;1.13;;;8.50;53.10;;;;;;5000974;28;20056;-70
2023/05/27 03:48:00;;;;;;;1.10;0.70;;;8.50;9.20;;;;;;4996151;28;20045;-70
2023/05/27 03:50:25;;;;;;;3.17;0.90;;;8.60;13.00;;;;;;5001743;28;20042;-70
2023/05/27 03:52:51;;;;;;;3.13;0.93;;;8.60;83.00;;;;;;4976564;28;20113;-71
2023/05/27 03:55:17;;;;;;;3.63;1.20;;;8.60;1.00;;;;;;4978301;28;20081;-70
2023/05/27 03:57:44;;;;;;;3.40;1.20;;;8.70;1.00;;;;;;4981221;28;20469;-70
2023/05/27 04:00:13;;;;;;;2.90;1.00;;;8.70;1.00;;;;;;4991016;28;20042;-70
2023/05/27 04:02:39;;;;;;;2.60;0.80;;;8.80;46.40;;;;;;4983649;28;20514;-71
2023/05/27 04:05:05;;;;;;;3.47;1.30;;;8.80;56.20;;;;;;4978768;28;20465;-71
2023/05/27 04:07:31;;;;;;;2.40;1.10;;;8.80;1.00;;;;;;4960429;28;20068;-71
2023/05/27 04:09:57;;;;;;;3.33;1.20;;;8.90;50.60;;;;;;4960890;28;20049;-71
2023/05/27 04:12:23;;;;;;;1.20;0.80;;;8.90;88.20;;;;;;4985575;28;20084;-71
2023/05/27 04:14:49;;;;;;;2.00;0.70;;;8.80;78.40;;;;;;4988711;28;20134;-71
2023/05/27 04:17:15;;;;;;;2.20;0.63;;;8.90;88.10;;;;;;4978634;28;20041;-71
2023/05/27 04:19:41;;;;;;;0.65;0.40;;;8.90;88.40;;;;;;4992702;28;20042;-71
2023/05/27 04:22:07;;;;;;;0.98;0.68;;;8.90;90.60;;;;;;4978018;28;20092;-71
2023/05/27 04:24:32;;;;;;;1.00;0.60;;;8.90;87.10;;;;;;4993986;28;20125;-71
2023/05/27 04:26:59;;;;;;;2.22;1.00;;;8.90;92.20;;;;;;4975980;28;20052;-70
2023/05/27 04:29:25;;;;;;;2.97;1.10;;;9.00;48.40;;;;;;4976754;28;20050;-71
2023/05/27 04:31:50;;;;;;;3.90;1.20;;;9.10;46.60;;;;;;4986048;28;20046;-71
2023/05/27 04:34:17;;;;;;;3.67;1.52;;;9.10;99.90;;;;;;4994798;28;20048;-71
2023/05/27 04:36:49;;;;;;;4.68;1.92;;;9.30;99.90;;;;;;4991906;28;20053;-71
2023/05/27 04:39:15;;;;;;;3.17;1.23;;;9.30;1.00;;;;;;4992569;28;20112;-71
2023/05/27 04:41:41;;;;;;;3.08;1.40;;;9.40;99.90;;;;;;5007959;28;20376;-71
2023/05/27 04:44:07;;;;;;;3.10;1.20;;;9.40;99.90;;;;;;5005666;28;20054;-71
2023/05/27 04:46:33;;;;;;;4.03;1.30;;;9.50;99.90;;;;;;4991937;28;20055;-70
2023/05/27 04:48:59;;;;;;;5.55;1.65;;;9.50;1.00;;;;;;5003031;28;20061;-70
2023/05/27 04:51:25;;;;;;;1.60;1.00;;;9.50;1.00;;;;;;5010546;28;20044;-71
2023/05/27 04:53:51;;;;;;;1.90;0.98;;;9.50;1.00;;;;;;4994954;28;20050;-71
2023/05/27 04:56:17;;;;;;;4.95;1.23;;;9.50;1.00;;;;;;4998270;28;20100;-70
2023/05/27 04:58:46;;;;;;;3.03;1.08;;;9.50;1.00;;;;;;4993360;28;20470;-70
2023/05/27 05:01:17;;;;;;;3.05;1.20;;;9.60;99.90;;;;;;4976107;28;20082;-70
2023/05/27 05:03:52;;;;;;;10.02;2.50;;;9.60;99.90;;;;;;4978906;28;20466;-70
2023/05/27 05:06:22;;;;;;;5.03;2.05;;;9.60;65.90;;;;;;4990123;28;20046;-70
2023/05/27 05:08:48;;;;;;;3.95;1.73;;;9.70;99.90;;;;;;5008841;28;20045;-70
2023/05/27 05:11:14;;;;;;;4.03;1.67;;;9.70;99.90;;;;;;4991946;28;20038;-70
2023/05/27 05:13:40;;;;;;;5.57;1.83;;;9.70;55.30;;;;;;4993042;28;20042;-71
2023/05/27 05:16:06;;;;;;;6.05;1.50;;;9.60;98.80;;;;;;4986224;28;20362;-71
2023/05/27 05:18:32;;;;;;;2.55;1.27;;;9.70;99.90;;;;;;4992101;28;20461;-71
2023/05/27 05:20:57;;;;;;;3.35;1.50;;;9.60;99.90;;;;;;4977831;28;20138;-71
2023/05/27 05:23:23;;;;;;;2.65;1.05;;;9.60;99.90;;;;;;4992987;28;20461;-71
2023/05/27 05:25:54;;;;;;;2.25;1.08;;;9.60;99.90;;;;;;4987619;28;20530;-72
2023/05/27 05:28:20;;;;;;;3.47;1.20;;;9.70;99.90;;;;;;4991995;28;20133;-71
2023/05/27 05:30:46;;;;;;;3.20;1.25;;;9.70;99.90;;;;;;4990864;28;20038;-71
2023/05/27 05:33:12;;;;;;;1.70;0.93;;;9.70;99.90;;;;;;4993424;28;20061;-71
2023/05/27 05:35:37;;;;;;;3.13;1.02;;;9.70;99.90;;;;;;4986665;28;20117;-71
2023/05/27 05:38:03;;;;;;;5.22;1.50;;;9.80;99.90;;;;;;4992304;28;20137;-71
2023/05/27 05:40:29;;;;;;;3.22;1.20;;;9.80;99.90;;;;;;4988026;28;20095;-71
2023/05/27 05:42:54;;;;;;;2.45;1.08;;;9.90;99.90;;;;;;4993779;28;20038;-71
2023/05/27 05:45:20;;;;;;;5.18;1.80;;;9.90;99.90;;;;;;4993439;28;20041;-71
2023/05/27 05:47:46;;;;;;;6.13;1.92;;;10.00;1.00;;;;;;4976497;28;20125;-71
2023/05/27 05:50:11;;;;;;;11.20;2.65;;;10.00;1.00;;;;;;4980895;28;20041;-70
2023/05/27 05:52:37;;;;;;;8.20;2.40;;;10.00;99.90;;;;;;4987112;28;20597;-71
2023/05/27 05:55:03;;;;;;;8.45;2.35;;;10.20;1.00;;;;;;4992956;28;20061;-71
2023/05/27 05:57:31;;;;;;;6.05;2.13;;;10.30;96.90;;;;;;4982784;28;20041;-71
2023/05/27 05:59:57;;;;;;;8.60;2.92;;;10.60;87.80;;;;;;5008422;28;20472;-72
2023/05/27 06:02:25;;;;;;;5.75;1.90;;;11.00;97.60;;;;;;5008404;28;20049;-72
2023/05/27 06:04:50;;;;;;;4.95;1.70;;;11.60;99.90;;;;;;4993117;28;20111;-73
2023/05/27 06:07:16;;;;;;;6.97;2.00;;;12.00;1.00;;;;;;4991849;28;20041;-73
2023/05/27 06:09:42;;;;;;;4.97;1.80;;;12.30;1.00;;;;;;4994023;28;20049;-73
2023/05/27 06:12:07;;;;;;;3.80;1.63;;;12.30;99.90;;;;;;4988810;28;20397;-70
2023/05/27 06:14:33;;;;;;;6.25;2.13;;;12.20;99.90;;;;;;4991254;28;20180;-72
2023/05/27 06:16:59;;;;;;;8.05;2.20;;;12.10;99.90;;;;;;4996926;28;20046;-73
2023/05/27 06:19:25;;;;;;;6.47;2.10;;;12.10;1.00;;;;;;4958495;28;20546;-73
2023/05/27 06:21:51;;;;;;;7.22;2.28;;;12.10;1.00;;;;;;4975272;28;20524;-73
2023/05/27 06:24:19;;;;;;;8.60;2.50;;;12.10;1.00;;;;;;4973975;28;20438;-73
2023/05/27 06:26:44;;;;;;;7.10;2.45;;;12.10;99.90;;;;;;4982273;28;20050;-70
2023/05/27 06:29:10;;;;;;;9.30;2.60;;;12.10;1.00;;;;;;5004681;28;20055;-71
2023/05/27 06:31:36;;;;;;;6.47;2.05;;;12.00;1.00;;;;;;4973346;28;20085;-71
2023/05/27 06:34:02;;;;;;;8.07;2.47;;;12.20;13.60;;;;;;5005870;28;20046;-71
2023/05/27 06:36:28;;;;;;;5.57;1.80;;;12.30;1.00;;;;;;4987834;28;20065;-71
2023/05/27 06:38:53;;;;;;;5.28;1.95;;;12.40;1.00;;;;;;4992925;28;20045;-71
2023/05/27 06:41:19;;;;;;;5.40;2.13;;;12.50;99.90;;;;;;4992375;28;20057;-71
2023/05/27 06:43:45;;;;;;;8.23;2.20;;;12.50;1.00;;;;;;5002535;28;20037;-71
2023/05/27 06:46:11;;;;;;;5.97;2.47;;;12.50;99.90;;;;;;4986252;28;20046;-70
2023/05/27 06:48:36;;;;;;;4.13;1.85;;;12.50;99.90;;;;;;4990195;28;20065;-71
2023/05/27 06:51:02;;;;;;;8.48;2.28;;;12.50;99.90;;;;;;5009237;28;20497;-72
2023/05/27 06:53:28;;;;;;;5.03;2.00;;;12.60;1.00;;;;;;4991039;28;20037;-72
2023/05/27 06:55:55;;;;;;;8.27;2.10;;;12.70;99.90;;;;;;4986293;28;20132;-72
2023/05/27 06:58:20;;;;;;;4.82;2.00;;;12.60;99.90;;;;;;4990476;28;20401;-72
2023/05/27 07:00:46;;;;;;;4.40;1.67;;;12.70;1.00;;;;;;4973738;28;20050;-72
2023/05/27 07:03:12;;;;;;;3.88;1.52;;;13.00;7.30;;;;;;4981179;28;20041;-72
2023/05/27 07:05:37;;;;;;;4.50;1.98;;;13.20;1.00;;;;;;4987807;28;20046;-71
2023/05/27 07:08:04;;;;;;;6.93;2.22;;;13.50;99.90;;;;;;4987185;28;20056;-71
2023/05/27 07:10:29;;;;;;;4.35;1.90;;;13.70;99.90;;;;;;4987872;28;20092;-71
2023/05/27 07:12:55;;;;;;;6.80;2.10;;;13.80;99.90;;;;;;4990985;28;20042;-71
2023/05/27 07:15:21;;;;;;;7.75;2.92;;;13.80;80.50;;;;;;4985135;28;20530;-71
2023/05/27 07:17:46;;;;;;;11.25;3.58;;;13.80;99.90;;;;;;5007879;28;20034;-71
2023/05/27 07:20:12;;;;;;;7.28;2.60;;;13.80;96.40;;;;;;4991519;28;20159;-71
2023/05/27 07:22:38;;;;;;;8.27;3.10;;;13.90;9.10;;;;;;4956314;28;20042;-72
2023/05/27 07:25:04;;;;;;;6.05;2.05;;;14.00;99.90;;;;;;4988536;28;20048;-72
2023/05/27 07:27:29;;;;;;;;;;;14.00;25.60;;;;;;5007556;28;20468;-72
2023/05/27 07:29:55;;;;;;;6.00;2.20;;;14.10;1.00;;;;;;4966277;28;19949;-72
2023/05/27 07:32:22;;;;;;;5.65;2.10;;;14.30;1.00;;;;;;4957470;28;20089;-72
2023/05/27 07:34:47;;;;;;;5.43;2.17;;;14.40;1.00;;;;;;4992469;28;20053;-72
2023/05/27 07:37:13;;;;;;;7.68;2.42;;;14.70;1.00;;;;;;4973635;28;20109;-72
2023/05/27 07:39:39;;;;;;;5.25;2.15;;;14.80;1.00;;;;;;4991895;28;20104;-72
2023/05/27 07:42:05;;;;;;;6.47;2.10;;;14.70;99.90;;;;;;4992409;28;20045;-72
2023/05/27 07:44:31;;;;;;;;;;;14.70;99.90;;;;;;4989426;28;20053;-72
2023/05/27 07:46:56;;;;;;;7.10;2.40;;;14.70;1.00;;;;;;4991079;28;20369;-72
2023/05/27 07:49:22;;;;;;;10.23;2.63;;;14.90;1.00;;;;;;4988089;28;20137;-72
2023/05/27 07:51:48;;;;;;;5.57;2.58;;;15.10;99.90;;;;;;4994194;28;20385;-72
2023/05/27 07:54:14;;;;;;;5.85;2.47;;;15.20;99.90;;;;;;4978311;28;20133;-72
2023/05/27 07:56:39;;;;;;;6.07;2.63;;;15.30;99.90;;;;;;4978497;28;20402;-72
2023/05/27 07:59:05;;;;;;;8.45;2.90;;;15.30;99.90;;;;;;4981220;28;20422;-71
2023/05/27 08:01:32;;;;;;;6.57;2.38;;;15.40;99.90;;;;;;4976695;28;20129;-71
2023/05/27 08:03:59;;;;;;;4.03;1.77;;;15.70;99.90;;;;;;4989070;28;20084;-71
2023/05/27 08:06:25;;;;;;;5.20;2.10;;;16.10;99.90;;;;;;4980408;28;20088;-72
2023/05/27 08:08:51;;;;;;;7.28;3.22;;;16.50;92.70;;;;;;4976462;28;20061;-72
2023/05/27 08:11:16;;;;;;;6.85;2.97;;;16.60;99.90;;;;;;4976303;28;20043;-72
2023/05/27 08:13:42;;;;;;;5.40;2.58;;;16.60;90.50;;;;;;4977073;28;20054;-72
2023/05/27 08:16:09;;;;;;;5.88;2.70;;;16.70;61.50;;;;;;4988450;28;20054;-72
2023/05/27 08:18:36;;;;;;;6.88;2.55;;;16.80;75.10;;;;;;4969368;28;20038;-72
2023/05/27 08:21:02;;;;;;;6.63;3.15;;;16.80;91.00;;;;;;4976875;28;20092;-72
2023/05/27 08:23:27;;;;;;;4.68;2.63;;;16.70;66.00;;;;;;4991587;28;20050;-72
2023/05/27 08:25:53;;;;;;;11.35;3.38;;;16.70;63.90;;;;;;4986018;28;20042;-71
2023/05/27 08:28:19;;;;;;;7.43;3.33;;;16.80;99.90;;;;;;4985436;28;20050;-71
2023/05/27 08:30:44;;;;;;;5.45;2.30;;;16.90;75.40;;;;;;4995311;28;20042;-72
2023/05/27 08:33:10;;;;;;;6.70;2.70;;;16.90;1.00;;;;;;4991918;28;20048;-72
2023/05/27 08:35:36;;;;;;;7.47;2.60;;;16.50;74.30;;;;;;4985829;28;20050;-72
2023/05/27 08:38:01;;;;;;;6.82;2.45;;;16.50;99.90;;;;;;4986016;28;20050;-72
2023/05/27 08:40:27;;;;;;;6.93;2.90;;;16.90;99.90;;;;;;4978136;28;20042;-72
2023/05/27 08:42:53;;;;;;;5.38;2.22;;;17.10;1.00;;;;;;4995039;28;20238;-72
2023/05/27 08:45:19;;;;;;;7.93;2.88;;;17.40;1.00;;;;;;4984262;28;20100;-72
2023/05/27 08:47:45;;;;;;;5.60;2.70;;;17.50;1.00;;;;;;4988550;28;20125;-72
2023/05/27 08:50:11;;;;;;;;;;;17.70;1.00;;;;;;4987444;28;20129;-72
2023/05/27 08:52:48;;;;;;;5.22;2.33;;;17.80;5.60;;;;;;4976182;28;19996;-72
2023/05/27 08:55:19;;;;;;;4.90;2.20;;;18.10;1.00;;;;;;4980254;28;20050;-72
2023/05/27 08:57:51;;;;;;;3.78;2.20;;;18.00;99.90;;;;;;4988365;28;20453;-72
2023/05/27 09:00:17;;;;;;;5.32;1.95;;;17.90;1.00;;;;;;5006942;28;20409;-72
2023/05/27 09:02:43;;;;;;;10.88;3.10;;;17.70;1.00;;;;;;5010179;28;20053;-72
2023/05/27 09:05:11;;;;;;;;;;;17.70;99.90;;;;;;5002114;28;20046;-72
2023/05/27 09:07:38;;;;;;;5.28;2.30;;;17.70;91.20;;;;;;4985311;28;19921;-72
2023/05/27 09:10:08;;;;;;;6.38;2.45;;;17.70;1.00;;;;;;4972353;28;20053;-72
2023/05/27 09:12:35;;;;;;;7.93;3.13;;;17.90;1.00;;;;;;4997109;28;20053;-72
2023/05/27 09:15:01;;;;;;;6.45;2.58;;;18.00;1.00;;;;;;4983686;28;20156;-71
2023/05/27 09:17:27;;;;;;;4.55;2.08;;;18.20;1.00;;;;;;4994458;28;20185;-71
2023/05/27 09:19:53;;;;;;;;;;;18.40;1.00;;;;;;4993473;28;20493;-72
2023/05/27 09:22:40;;;;;;;4.40;1.95;;;18.70;99.90;;;;;;4977818;28;19924;-71
2023/05/27 09:25:06;;;;;;;;;;;18.80;1.00;;;;;;4977717;28;20469;-72
2023/05/27 09:27:32;;;;;;;7.03;2.83;;;18.90;1.00;;;;;;4976857;28;20480;-71
2023/05/27 09:30:06;;;;;;;;;;;19.00;99.90;;;;;;4984857;28;20080;-72
2023/05/27 09:32:32;;;;;;;5.38;2.33;;;19.10;99.90;;;;;;4986141;28;20052;-72
2023/05/27 09:35:00;;;;;;;6.45;2.42;;;19.20;99.90;;;;;;4988822;28;20381;-72
2023/05/27 09:37:32;;;;;;;5.45;2.10;;;19.30;99.90;;;;;;4992736;28;20053;-72
2023/05/27 09:40:12;;;;;;;5.05;2.15;;;19.40;99.90;;;;;;4993524;28;20049;-72
2023/05/27 09:42:47;;;;;;;6.15;2.17;;;19.50;99.90;;;;;;4993928;28;20515;-72
2023/05/27 09:45:20;;;;;;;5.35;2.00;;;19.50;99.90;;;;;;4977799;28;20124;-72
2023/05/27 09:47:51;;;;;;;6.60;2.60;;;19.50;99.90;;;;;;4981029;28;20109;-72
2023/05/27 09:50:20;;;;;;;7.90;2.67;;;19.40;99.90;;;;;;4990237;28;20442;-72
2023/05/27 09:52:47;;;;;;;6.00;2.63;;;19.20;99.90;;;;;;4992800;28;20121;-72
2023/05/27 09:55:14;;;;;;;5.38;2.15;;;19.30;99.90;;;;;;4990260;28;20100;-72
2023/05/27 09:57:41;;;;;;;4.03;1.75;;;19.70;99.90;;;;;;4955041;28;20104;-72
2023/05/27 10:00:11;;;;;;;3.97;1.85;;;20.00;99.90;;;;;;4986957;28;20045;-72
2023/05/27 10:02:48;;;;;;;4.82;1.90;;;20.30;99.90;;;;;;4990422;28;20034;-72
2023/05/27 10:05:15;;;;;;;;;;;20.60;99.90;;;;;;4982224;28;20050;-72
2023/05/27 10:07:44;;;;;;;5.93;2.30;;;20.60;99.90;;;;;;4978960;28;19995;-72
2023/05/27 10:10:11;;;;;;;5.43;2.17;;;20.60;99.90;;;;;;4984870;28;20502;-72
2023/05/27 10:12:40;;;;;;;7.30;2.47;;;20.60;99.90;;;;;;4975389;28;20089;-72
2023/05/27 10:15:06;;;;;;;5.38;2.20;;;20.50;99.90;;;;;;5005462;28;20052;-72
2023/05/27 10:17:49;;;;;;;5.22;2.35;;;20.20;99.90;;;;;;4991198;28;20038;-72
2023/05/27 10:20:38;;;;;;;4.28;1.90;;;20.30;99.90;;;;;;4980385;28;20061;-72
2023/05/27 10:23:15;;;;;;;4.85;2.10;;;20.60;99.90;;;;;;4958272;28;20490;-72
2023/05/27 10:25:53;;;;;;;5.90;2.10;;;20.70;99.90;;;;;;4978162;28;20149;-72
2023/05/27 10:28:32;;;;;;;8.18;2.40;;;21.00;99.90;;;;;;4973632;28;20498;-72
2023/05/27 10:31:11;;;;;;;8.25;3.10;;;21.20;99.90;;;;;;4989419;28;20053;-72
2023/05/27 10:33:38;;;;;;;4.85;2.38;;;21.00;99.90;;;;;;4991294;28;20038;-72
2023/05/27 10:36:13;;;;;;;5.78;2.22;;;21.10;99.90;;;;;;4975978;28;20061;-72
2023/05/27 10:38:41;;;;;;;6.65;2.60;;;21.20;99.90;;;;;;4973847;28;20058;-73
2023/05/27 10:41:07;;;;;;;6.07;2.05;;;21.20;84.50;;;;;;4978949;28;20129;-72
2023/05/27 10:43:34;;;;;;;4.20;2.03;;;21.30;96.00;;;;;;4974843;28;20037;-72
2023/05/27 10:46:13;;;;;;;4.28;2.05;;;21.20;53.00;;;;;;4988029;28;20053;-72
2023/05/27 10:48:42;;;;;;;5.70;2.70;;;21.20;99.90;;;;;;4991200;28;20125;-71
2023/05/27 10:51:08;;;;;;;10.50;3.42;;;21.20;99.90;;;;;;4988289;28;20524;-71
2023/05/27 10:53:36;;;;;;;10.02;3.72;;;21.10;99.90;;;;;;4991223;28;20125;-72
2023/05/27 10:56:02;;;;;;;5.85;2.53;;;21.00;99.10;;;;;;4978734;28;20050;-72
2023/05/27 10:58:28;;;;;;;7.20;2.70;;;21.20;91.50;;;;;;4973354;28;20057;-71
2023/05/27 11:00:56;;;;;;;5.28;2.25;;;21.20;91.00;;;;;;4974991;28;20100;-71
2023/05/27 11:03:27;;;;;;;7.38;2.67;;;21.40;99.90;;;;;;4964696;28;20121;-72
2023/05/27 11:06:01;;;;;;;5.55;2.58;;;21.60;85.60;;;;;;4991305;28;20054;-72
2023/05/27 11:08:27;;;;;;;5.72;2.45;;;21.60;60.30;;;;;;4990921;28;20155;-72
2023/05/27 11:11:05;;;;;;;3.92;2.30;;;21.70;57.80;;;;;;4990071;28;20072;-72
2023/05/27 11:13:45;;;;;;;5.45;2.33;;;22.00;26.40;;;;;;4983698;28;20041;-72
2023/05/27 11:16:12;;;;;;;7.43;2.47;;;22.20;16.90;;;;;;4988842;28;20376;-72
2023/05/27 11:18:46;;;;;;;5.32;2.42;;;22.10;13.80;;;;;;4980015;28;20050;-72
2023/05/27 11:21:12;;;;;;;7.57;3.20;;;22.00;45.60;;;;;;4990193;28;20042;-72
2023/05/27 11:23:43;;;;;;;7.50;2.90;;;21.90;8.70;;;;;;4986273;28;20049;-72
2023/05/27 11:26:23;;;;;;;7.30;3.00;;;22.00;26.20;;;;;;4992535;28;20045;-72
2023/05/27 11:28:54;;;;;;;5.47;2.60;;;21.70;5.60;;;;;;5012679;28;20080;-72
2023/05/27 11:31:21;;;;;;;5.07;2.20;;;21.90;40.70;;;;;;4990153;28;20074;-72
2023/05/27 11:33:50;;;;;;;5.88;2.30;;;22.10;30.20;;;;;;4996500;28;20050;-72
2023/05/27 11:36:16;;;;;;;5.30;2.80;;;22.20;6.40;;;;;;4984655;28;20062;-72
2023/05/27 11:38:52;;;;;;;4.50;2.20;;;22.20;11.60;;;;;;4993950;28;20370;-72
2023/05/27 11:41:22;;;;;;;8.07;3.53;;;22.10;1.00;;;;;;4991465;28;20050;-71
2023/05/27 11:43:54;;;;;;;9.43;3.00;;;22.20;18.20;;;;;;4994695;28;20084;-72
2023/05/27 11:46:21;;;;;;;6.40;3.35;;;22.10;1.00;;;;;;4991090;28;20508;-72
2023/05/27 11:48:47;;;;;;;4.65;2.30;;;22.10;1.00;;;;;;4978877;28;20046;-72
2023/05/27 11:51:13;;;;;;;6.75;2.85;;;22.40;8.40;;;;;;5008636;28;20057;-72
2023/05/27 11:53:41;;;;;;;8.77;2.92;;;22.40;1.00;;;;;;4989806;28;20472;-72
2023/05/27 11:56:07;;;;;;;5.88;2.80;;;22.50;1.00;;;;;;4987986;28;20045;-72
2023/05/27 11:58:33;;;;;;;5.65;2.80;;;22.50;1.00;;;;;;4994805;28;20389;-72
2023/05/27 12:00:58;;;;;;;9.82;3.65;;;22.40;1.00;;;;;;4992602;28;20042;-72
2023/05/27 12:03:24;;;;;;;7.15;2.60;;;22.20;1.00;;;;;;4993861;28;20161;-72
2023/05/27 12:05:50;;;;;;;7.82;3.00;;;22.30;1.00;;;;;;4977989;28;20056;-72
2023/05/27 12:08:15;;;;;;;4.60;2.38;;;22.30;1.00;;;;;;4988909;28;20046;-72
2023/05/27 12:10:41;;;;;;;7.65;3.50;;;22.50;1.00;;;;;;5008760;28;20050;-72
2023/05/27 12:13:07;;;;;;;5.10;2.45;;;22.40;1.00;;;;;;4978511;28;20125;-72
2023/05/27 12:15:33;;;;;;;5.70;2.60;;;22.50;1.00;;;;;;4986503;28;20156;-72
2023/05/27 12:17:59;;;;;;;4.70;2.50;;;22.50;1.00;;;;;;4994321;28;20045;-72
2023/05/27 12:20:27;;;;;;;9.35;3.42;;;22.70;1.00;;;;;;4992247;28;20038;-72
2023/05/27 12:22:53;;;;;;;8.02;3.10;;;22.50;1.00;;;;;;4989564;28;20046;-72
2023/05/27 12:25:20;;;;;;;7.60;2.92;;;22.50;1.00;;;;;;4960488;28;20046;-72
2023/05/27 12:27:45;;;;;;;4.90;2.40;;;22.60;1.00;;;;;;4988956;28;20045;-72
2023/05/27 12:30:12;;;;;;;6.30;2.72;;;22.80;1.00;;;;;;4975949;28;20370;-72
2023/05/27 12:32:38;;;;;;;7.70;2.88;;;22.70;1.00;;;;;;4990514;28;20077;-71
2023/05/27 12:35:05;;;;;;;10.70;3.92;;;22.70;1.00;;;;;;4991066;28;20052;-72
2023/05/27 12:37:31;;;;;;;6.38;2.90;;;22.60;1.00;;;;;;4990310;28;20129;-72
2023/05/27 12:39:57;;;;;;;7.07;2.80;;;22.60;1.00;;;;;;5009978;28;20050;-72
2023/05/27 12:42:23;;;;;;;7.40;2.55;;;22.70;1.00;;;;;;5008767;28;20038;-71
2023/05/27 12:44:48;;;;;;;6.88;2.78;;;23.00;1.00;;;;;;4982135;28;20046;-70
2023/05/27 12:47:14;;;;;;;6.10;2.47;;;23.10;1.00;;;;;;4992930;28;20461;-72
2023/05/27 12:49:41;;;;;;;7.03;2.60;;;23.20;1.00;;;;;;4993970;28;20053;-72
2023/05/27 12:52:07;;;;;;;6.03;2.70;;;23.20;1.00;;;;;;4992190;28;20441;-72
2023/05/27 12:54:33;;;;;;;9.15;3.70;;;23.20;1.00;;;;;;4976161;28;20054;-71
2023/05/27 12:56:58;;;;;;;9.38;3.08;;;22.90;1.00;;;;;;4993864;28;20041;-72